createdAt,value
2023-02-12T00:00:31.856Z,81.64
2023-02-12T00:01:28.193Z,81.62
2023-02-12T00:02:22.947Z,81.62
2023-02-12T00:03:17.991Z,81.62
2023-02-12T00:04:13.082Z,81.59
2023-02-12T00:05:08.443Z,81.58
2023-02-12T00:06:03.429Z,81.62
2023-02-12T00:06:58.580Z,81.58
2023-02-12T00:07:53.671Z,81.54
2023-02-12T00:08:48.792Z,81.58
2023-02-12T00:09:43.647Z,81.56
2023-02-12T00:10:38.750Z,81.59
2023-02-12T00:11:33.733Z,81.58
2023-02-12T00:12:28.856Z,81.54
2023-02-12T00:13:23.883Z,81.57
2023-02-12T00:14:18.972Z,81.55
2023-02-12T00:15:13.935Z,81.68
2023-02-12T00:16:09.129Z,81.65
2023-02-12T00:17:04.069Z,81.70
2023-02-12T00:17:59.175Z,81.72
2023-02-12T00:18:54.218Z,81.79
2023-02-12T00:19:49.342Z,81.86
2023-02-12T00:20:44.723Z,81.92
2023-02-12T00:21:39.843Z,81.92
2023-02-12T00:22:34.990Z,81.93
2023-02-12T00:23:30.394Z,81.98
2023-02-12T00:24:25.497Z,82.07
2023-02-12T00:25:20.611Z,82.10
2023-02-12T00:26:16.989Z,82.19
2023-02-12T00:27:12.078Z,82.20
2023-02-12T00:28:07.184Z,82.24
2023-02-12T00:29:02.549Z,82.23
2023-02-12T00:29:57.546Z,82.14
2023-02-12T00:30:52.885Z,81.94
2023-02-12T00:31:47.891Z,81.76
2023-02-12T00:32:43.011Z,81.58
2023-02-12T00:33:38.124Z,81.58
2023-02-12T00:34:33.514Z,81.79
2023-02-12T00:35:28.728Z,81.98
2023-02-12T00:36:23.760Z,82.14
2023-02-12T00:37:18.855Z,82.26
2023-02-12T00:38:13.975Z,82.36
2023-02-12T00:39:09.049Z,82.36
2023-02-12T00:40:04.282Z,82.34
2023-02-12T00:40:59.750Z,82.21
2023-02-12T00:41:54.569Z,82.09
2023-02-12T00:42:49.785Z,82.03
2023-02-12T00:43:44.890Z,81.88
2023-02-12T00:44:40.078Z,81.81
2023-02-12T00:45:35.192Z,81.77
2023-02-12T00:46:30.973Z,81.69
2023-02-12T00:47:25.697Z,81.72
2023-02-12T00:48:20.688Z,81.71
2023-02-12T00:49:15.807Z,81.64
2023-02-12T00:50:10.930Z,81.57
2023-02-12T00:51:06.314Z,81.51
2023-02-12T00:52:01.505Z,81.48
2023-02-12T00:52:56.508Z,81.39
2023-02-12T00:53:51.500Z,81.32
2023-02-12T00:54:46.587Z,81.30
2023-02-12T00:55:41.674Z,81.26
2023-02-12T00:56:36.766Z,81.16
2023-02-12T00:57:31.931Z,81.19
2023-02-12T00:58:27.036Z,81.08
2023-02-12T00:59:22.233Z,81.08
2023-02-12T01:00:17.364Z,81.13
2023-02-12T01:01:12.403Z,81.15
2023-02-12T01:02:07.642Z,81.19
2023-02-12T01:03:02.601Z,81.25
2023-02-12T01:03:57.909Z,81.33
2023-02-12T01:04:52.737Z,81.39
2023-02-12T01:05:47.846Z,81.43
2023-02-12T01:06:42.927Z,81.45
2023-02-12T01:07:37.884Z,81.45
2023-02-12T01:08:32.974Z,81.37
2023-02-12T01:09:28.042Z,81.32
2023-02-12T01:10:22.988Z,81.33
2023-02-12T01:11:18.088Z,81.34
2023-02-12T01:12:13.050Z,81.33
2023-02-12T01:13:08.195Z,81.36
2023-02-12T01:14:03.394Z,81.44
2023-02-12T01:14:58.648Z,81.47
2023-02-12T01:15:54.091Z,81.41
2023-02-12T01:16:48.968Z,81.30
2023-02-12T01:17:44.880Z,81.28
2023-02-12T01:18:40.162Z,81.20
2023-02-12T01:19:36.016Z,81.15
2023-02-12T01:20:31.198Z,81.15
2023-02-12T01:21:26.459Z,81.14
2023-02-12T01:22:22.151Z,81.16
2023-02-12T01:23:17.417Z,81.18
2023-02-12T01:24:12.554Z,81.20
2023-02-12T01:25:08.893Z,81.16
2023-02-12T01:26:04.035Z,81.16
2023-02-12T01:26:59.856Z,81.18
2023-02-12T01:27:54.930Z,81.15
2023-02-12T01:28:50.073Z,81.10
2023-02-12T01:29:45.980Z,81.08
2023-02-12T01:30:41.172Z,81.08
2023-02-12T01:31:36.944Z,81.09
2023-02-12T01:32:32.068Z,81.16
2023-02-12T01:33:27.355Z,81.21
2023-02-12T01:34:23.182Z,81.23
2023-02-12T01:35:18.187Z,81.29
2023-02-12T01:36:13.439Z,81.36
2023-02-12T01:37:09.636Z,81.42
2023-02-12T01:38:04.916Z,81.51
2023-02-12T01:39:00.817Z,81.52
2023-02-12T01:39:55.954Z,81.56
2023-02-12T01:40:51.073Z,81.65
2023-02-12T01:41:47.394Z,81.72
2023-02-12T01:42:42.246Z,81.79
2023-02-12T01:43:38.179Z,81.87
2023-02-12T01:44:33.165Z,81.96
2023-02-12T01:45:28.444Z,81.99
2023-02-12T01:46:24.354Z,81.94
2023-02-12T01:47:19.590Z,81.86
2023-02-12T01:48:14.805Z,81.83
2023-02-12T01:49:11.208Z,81.79
2023-02-12T01:50:06.356Z,81.74
2023-02-12T01:51:02.225Z,81.79
2023-02-12T01:51:57.308Z,81.83
2023-02-12T01:52:52.712Z,81.95
2023-02-12T01:53:48.397Z,82.06
2023-02-12T01:54:43.661Z,82.18
2023-02-12T01:55:39.475Z,82.37
2023-02-12T01:56:34.843Z,82.56
2023-02-12T01:57:30.027Z,82.69
2023-02-12T01:58:25.723Z,82.80
2023-02-12T01:59:20.948Z,82.84
2023-02-12T02:00:15.961Z,82.92
2023-02-12T02:01:12.432Z,82.96
2023-02-12T02:02:07.796Z,82.93
2023-02-12T02:03:03.546Z,82.96
2023-02-12T02:03:58.775Z,83.04
2023-02-12T02:04:53.784Z,83.09
2023-02-12T02:05:49.603Z,83.16
2023-02-12T02:06:44.733Z,83.15
2023-02-12T02:07:40.539Z,83.22
2023-02-12T02:08:35.618Z,83.29
2023-02-12T02:09:31.063Z,83.32
2023-02-12T02:10:26.857Z,83.28
2023-02-12T02:11:22.008Z,83.21
2023-02-12T02:12:17.089Z,83.09
2023-02-12T02:13:13.474Z,82.97
2023-02-12T02:14:08.806Z,82.92
2023-02-12T02:15:04.510Z,82.96
2023-02-12T02:15:59.770Z,82.96
2023-02-12T02:16:54.978Z,82.93
2023-02-12T02:17:50.081Z,82.84
2023-02-12T02:18:45.500Z,82.80
2023-02-12T02:19:41.427Z,82.82
2023-02-12T02:20:36.471Z,82.76
2023-02-12T02:21:31.552Z,82.72
2023-02-12T02:22:27.929Z,82.74
2023-02-12T02:23:23.075Z,82.71
2023-02-12T02:24:18.856Z,82.67
2023-02-12T02:25:14.093Z,82.59
2023-02-12T02:26:09.216Z,82.52
2023-02-12T02:27:05.043Z,82.50
2023-02-12T02:28:00.337Z,82.48
2023-02-12T02:28:56.252Z,82.48
2023-02-12T02:29:51.401Z,82.54
2023-02-12T02:30:47.168Z,82.58
2023-02-12T02:31:42.445Z,82.65
2023-02-12T02:32:37.460Z,82.67
2023-02-12T02:33:32.698Z,82.67
2023-02-12T02:34:27.792Z,82.64
2023-02-12T02:35:22.995Z,82.62
2023-02-12T02:36:18.113Z,82.69
2023-02-12T02:37:13.241Z,82.64
2023-02-12T02:38:12.016Z,82.66
2023-02-12T02:39:07.390Z,82.71
2023-02-12T02:40:02.386Z,82.74
2023-02-12T02:40:57.724Z,82.83
2023-02-12T02:41:52.836Z,82.78
2023-02-12T02:42:47.803Z,82.76
2023-02-12T02:43:42.794Z,82.78
2023-02-12T02:44:37.921Z,82.75
2023-02-12T02:45:32.890Z,82.79
2023-02-12T02:46:28.007Z,82.82
2023-02-12T02:47:23.050Z,82.88
2023-02-12T02:48:18.175Z,82.87
2023-02-12T02:49:13.269Z,82.86
2023-02-12T02:50:08.382Z,82.89
2023-02-12T02:51:03.841Z,82.94
2023-02-12T02:51:58.859Z,82.96
2023-02-12T02:52:53.450Z,83.01
2023-02-12T02:53:48.551Z,83.05
2023-02-12T02:54:43.570Z,83.10
2023-02-12T02:55:38.702Z,83.13
2023-02-12T02:56:33.792Z,83.04
2023-02-12T02:57:28.999Z,82.99
2023-02-12T02:58:24.061Z,82.92
2023-02-12T02:59:19.226Z,82.93
2023-02-12T03:00:14.304Z,82.96
2023-02-12T03:01:10.083Z,82.99
2023-02-12T03:02:04.422Z,83.01
2023-02-12T03:02:59.633Z,83.06
2023-02-12T03:03:54.626Z,83.08
2023-02-12T03:04:49.753Z,83.09
2023-02-12T03:05:44.760Z,83.13
2023-02-12T03:06:40.203Z,83.16
2023-02-12T03:07:35.307Z,83.19
2023-02-12T03:08:31.686Z,83.22
2023-02-12T03:09:26.855Z,83.25
2023-02-12T03:10:22.688Z,83.29
2023-02-12T03:11:17.756Z,83.31
2023-02-12T03:12:13.135Z,83.36
2023-02-12T03:13:09.060Z,83.41
2023-02-12T03:14:04.073Z,83.45
2023-02-12T03:14:59.908Z,83.54
2023-02-12T03:15:55.421Z,83.60
2023-02-12T03:16:50.480Z,83.62
2023-02-12T03:17:46.234Z,83.73
2023-02-12T03:18:41.367Z,83.75
2023-02-12T03:19:36.495Z,83.85
2023-02-12T03:21:57.913Z,84.68
2023-02-12T03:22:52.932Z,84.64
2023-02-12T03:23:48.020Z,84.54
2023-02-12T03:24:43.163Z,84.41
2023-02-12T03:25:38.355Z,84.25
2023-02-12T03:26:33.578Z,84.17
2023-02-12T03:27:28.688Z,84.09
2023-02-12T03:28:24.038Z,84.01
2023-02-12T03:29:19.124Z,83.93
2023-02-12T03:30:14.239Z,83.81
2023-02-12T03:31:09.489Z,83.75
2023-02-12T03:32:04.655Z,83.72
2023-02-12T03:32:59.625Z,83.56
2023-02-12T03:33:54.856Z,83.46
2023-02-12T03:34:50.079Z,83.42
2023-02-12T03:35:45.186Z,83.37
2023-02-12T03:36:40.255Z,83.28
2023-02-12T03:37:35.355Z,83.18
2023-02-12T03:38:30.583Z,83.15
2023-02-12T03:39:25.823Z,83.26
2023-02-12T03:40:20.955Z,83.49
2023-02-12T03:41:17.126Z,83.68
2023-02-12T03:42:11.294Z,83.90
2023-02-12T03:43:06.429Z,84.06
2023-02-12T03:44:01.497Z,84.13
2023-02-12T03:44:56.621Z,84.15
2023-02-12T03:45:51.786Z,84.13
2023-02-12T03:46:46.901Z,84.06
2023-02-12T03:47:42.028Z,83.97
2023-02-12T03:48:37.341Z,83.79
2023-02-12T03:49:32.430Z,83.69
2023-02-12T03:50:27.557Z,83.63
2023-02-12T03:51:22.629Z,83.64
2023-02-12T03:52:18.023Z,83.62
2023-02-12T03:53:13.050Z,83.59
2023-02-12T03:54:08.141Z,83.54
2023-02-12T03:55:03.226Z,83.48
2023-02-12T03:55:58.435Z,83.43
2023-02-12T03:56:53.647Z,83.43
2023-02-12T03:57:48.778Z,83.43
2023-02-12T03:58:43.852Z,83.44
2023-02-12T03:59:39.193Z,83.47
2023-02-12T04:00:34.146Z,83.58
2023-02-12T04:01:29.465Z,83.72
2023-02-12T04:02:24.705Z,83.83
2023-02-12T04:03:19.941Z,83.96
2023-02-12T04:04:15.155Z,84.06
2023-02-12T04:05:10.158Z,84.06
2023-02-12T04:06:05.238Z,84.07
2023-02-12T04:07:00.474Z,84.14
2023-02-12T04:07:55.574Z,84.16
2023-02-12T04:08:50.795Z,84.17
2023-02-12T04:09:45.864Z,84.19
2023-02-12T04:10:40.979Z,84.16
2023-02-12T04:11:36.164Z,84.17
2023-02-12T04:12:31.378Z,84.14
2023-02-12T04:13:26.491Z,84.14
2023-02-12T04:14:21.586Z,84.16
2023-02-12T04:15:16.763Z,84.11
2023-02-12T04:16:12.021Z,84.07
2023-02-12T04:17:07.230Z,84.08
2023-02-12T04:18:02.188Z,84.16
2023-02-12T04:18:57.343Z,84.16
2023-02-12T04:19:52.591Z,84.06
2023-02-12T04:20:47.678Z,84.04
2023-02-12T04:21:42.950Z,84.09
2023-02-12T04:22:38.163Z,84.21
2023-02-12T04:23:33.256Z,84.26
2023-02-12T04:24:28.357Z,84.34
2023-02-12T04:25:23.596Z,84.39
2023-02-12T04:26:18.689Z,84.50
2023-02-12T04:27:13.905Z,84.62
2023-02-12T04:28:09.029Z,84.74
2023-02-12T04:29:04.241Z,84.83
2023-02-12T04:29:59.406Z,84.85
2023-02-12T04:30:54.612Z,84.76
2023-02-12T04:31:50.179Z,84.71
2023-02-12T04:32:45.088Z,84.57
2023-02-12T04:33:40.053Z,84.45
2023-02-12T04:34:35.401Z,84.29
2023-02-12T04:35:30.636Z,84.19
2023-02-12T04:36:25.578Z,84.07
2023-02-12T04:37:20.651Z,84.01
2023-02-12T04:38:15.915Z,84.16
2023-02-12T04:39:10.984Z,84.27
2023-02-12T04:40:06.331Z,84.45
2023-02-12T04:41:01.281Z,84.57
2023-02-12T04:41:56.509Z,84.62
2023-02-12T04:42:51.838Z,84.54
2023-02-12T04:43:46.965Z,84.45
2023-02-12T04:44:42.050Z,84.43
2023-02-12T04:45:37.414Z,84.40
2023-02-12T04:46:32.762Z,84.44
2023-02-12T04:47:27.587Z,84.44
2023-02-12T04:48:22.682Z,84.51
2023-02-12T04:49:17.930Z,84.54
2023-02-12T04:50:12.998Z,84.52
2023-02-12T04:51:08.227Z,84.57
2023-02-12T04:52:03.302Z,84.61
2023-02-12T04:52:58.698Z,84.65
2023-02-12T04:53:53.670Z,84.57
2023-02-12T04:54:48.878Z,84.45
2023-02-12T04:55:44.039Z,84.32
2023-02-12T04:56:39.118Z,84.25
2023-02-12T04:57:34.224Z,84.27
2023-02-12T04:58:29.350Z,84.31
2023-02-12T04:59:24.435Z,84.38
2023-02-12T05:00:19.663Z,84.42
2023-02-12T05:01:14.835Z,84.44
2023-02-12T05:02:09.947Z,84.47
2023-02-12T05:03:05.191Z,84.55
2023-02-12T05:04:00.285Z,84.55
2023-02-12T05:04:55.537Z,84.51
2023-02-12T05:05:50.645Z,84.43
2023-02-12T05:06:45.870Z,84.42
2023-02-12T05:07:40.936Z,84.47
2023-02-12T05:08:36.331Z,84.44
2023-02-12T05:09:31.427Z,84.39
2023-02-12T05:10:26.675Z,84.34
2023-02-12T05:11:21.785Z,84.41
2023-02-12T05:12:17.359Z,84.44
2023-02-12T05:13:12.163Z,84.45
2023-02-12T05:14:07.288Z,84.44
2023-02-12T05:15:02.362Z,84.45
2023-02-12T05:15:57.710Z,84.50
2023-02-12T05:16:52.960Z,84.55
2023-02-12T05:17:47.911Z,84.57
2023-02-12T05:18:43.000Z,84.70
2023-02-12T05:19:38.282Z,84.90
2023-02-12T05:20:33.395Z,85.09
2023-02-12T05:21:28.595Z,85.22
2023-02-12T05:22:23.725Z,85.37
2023-02-12T05:23:19.154Z,85.48
2023-02-12T05:24:14.169Z,85.55
2023-02-12T05:25:09.461Z,85.59
2023-02-12T05:26:04.614Z,85.67
2023-02-12T05:26:59.899Z,85.75
2023-02-12T05:27:55.160Z,85.84
2023-02-12T05:28:50.503Z,85.90
2023-02-12T05:29:45.366Z,85.97
2023-02-12T05:30:40.687Z,86.04
2023-02-12T05:31:35.931Z,86.11
2023-02-12T05:32:31.034Z,86.14
2023-02-12T05:33:26.302Z,86.19
2023-02-12T05:34:21.623Z,86.14
2023-02-12T05:35:16.623Z,86.10
2023-02-12T05:36:11.831Z,86.04
2023-02-12T05:37:07.245Z,86.01
2023-02-12T05:38:02.244Z,86.04
2023-02-12T05:38:57.319Z,86.06
2023-02-12T05:39:52.597Z,86.12
2023-02-12T05:40:47.597Z,86.14
2023-02-12T05:41:42.796Z,86.17
2023-02-12T05:42:37.918Z,86.20
2023-02-12T05:43:33.343Z,86.23
2023-02-12T05:44:28.624Z,86.27
2023-02-12T05:45:23.643Z,86.28
2023-02-12T05:46:18.901Z,86.22
2023-02-12T05:47:14.076Z,86.02
2023-02-12T05:48:09.246Z,85.80
2023-02-12T05:49:04.503Z,85.69
2023-02-12T05:49:59.639Z,85.64
2023-02-12T05:50:54.929Z,85.59
2023-02-12T05:51:50.123Z,85.53
2023-02-12T05:52:45.269Z,85.49
2023-02-12T05:53:40.559Z,85.45
2023-02-12T05:54:35.695Z,85.38
2023-02-12T05:55:30.841Z,85.30
2023-02-12T05:56:26.001Z,85.25
2023-02-12T05:57:21.126Z,85.25
2023-02-12T05:58:16.289Z,85.21
2023-02-12T05:59:11.548Z,85.13
2023-02-12T06:00:06.811Z,85.11
2023-02-12T06:01:01.941Z,85.03
2023-02-12T06:01:57.125Z,84.96
2023-02-12T06:02:52.561Z,84.93
2023-02-12T06:03:47.681Z,84.83
2023-02-12T06:04:42.726Z,84.79
2023-02-12T06:05:37.869Z,84.76
2023-02-12T06:06:33.018Z,84.75
2023-02-12T06:07:28.312Z,84.74
2023-02-12T06:08:23.442Z,84.76
2023-02-12T06:09:18.631Z,84.80
2023-02-12T06:10:13.911Z,84.82
2023-02-12T06:11:09.060Z,84.89
2023-02-12T06:12:04.229Z,84.96
2023-02-12T06:12:59.508Z,85.01
2023-02-12T06:13:54.779Z,85.03
2023-02-12T06:14:49.962Z,85.08
2023-02-12T06:15:45.277Z,85.12
2023-02-12T06:16:40.440Z,85.12
2023-02-12T06:17:35.570Z,85.12
2023-02-12T06:18:30.784Z,85.13
2023-02-12T06:19:25.997Z,85.17
2023-02-12T06:20:21.352Z,85.16
2023-02-12T06:21:16.404Z,85.15
2023-02-12T06:22:11.638Z,85.16
2023-02-12T06:23:06.844Z,85.13
2023-02-12T06:24:02.226Z,85.11
2023-02-12T06:24:57.291Z,85.09
2023-02-12T06:25:52.625Z,85.02
2023-02-12T06:26:47.697Z,84.99
2023-02-12T06:27:43.054Z,84.99
2023-02-12T06:28:38.313Z,85.01
2023-02-12T06:29:33.639Z,84.99
2023-02-12T06:30:28.967Z,84.95
2023-02-12T06:31:24.353Z,84.89
2023-02-12T06:32:19.669Z,84.89
2023-02-12T06:33:14.675Z,84.88
2023-02-12T06:34:09.693Z,84.98
2023-02-12T06:35:04.817Z,84.97
2023-02-12T06:35:59.826Z,84.96
2023-02-12T06:36:54.984Z,85.02
2023-02-12T06:37:49.851Z,85.09
2023-02-12T06:38:44.911Z,85.10
2023-02-12T06:39:39.986Z,85.13
2023-02-12T06:40:35.048Z,85.20
2023-02-12T06:41:30.074Z,85.28
2023-02-12T06:42:25.172Z,85.34
2023-02-12T06:43:20.114Z,85.35
2023-02-12T06:44:15.220Z,85.39
2023-02-12T06:45:10.250Z,85.38
2023-02-12T06:47:31.913Z,86.03
2023-02-12T06:48:27.015Z,85.89
2023-02-12T06:49:22.189Z,85.79
2023-02-12T06:50:17.394Z,85.65
2023-02-12T06:51:12.622Z,85.57
2023-02-12T06:52:07.813Z,85.52
2023-02-12T06:53:03.046Z,85.43
2023-02-12T06:53:58.214Z,85.29
2023-02-12T06:54:53.545Z,85.25
2023-02-12T06:55:48.755Z,85.26
2023-02-12T06:56:43.975Z,85.24
2023-02-12T06:57:39.312Z,85.22
2023-02-12T06:58:34.450Z,85.22
2023-02-12T06:59:29.671Z,85.18
2023-02-12T07:00:24.921Z,85.14
2023-02-12T07:01:20.104Z,85.12
2023-02-12T07:02:15.487Z,85.18
2023-02-12T07:03:10.578Z,85.17
2023-02-12T07:04:05.970Z,85.12
2023-02-12T07:05:01.157Z,85.05
2023-02-12T07:05:56.675Z,84.96
2023-02-12T07:06:51.613Z,84.87
2023-02-12T07:07:46.961Z,84.76
2023-02-12T07:08:42.029Z,84.66
2023-02-12T07:09:37.237Z,84.59
2023-02-12T07:10:32.507Z,84.61
2023-02-12T07:11:27.776Z,84.55
2023-02-12T07:12:23.035Z,84.53
2023-02-12T07:13:18.332Z,84.56
2023-02-12T07:14:13.610Z,84.56
2023-02-12T07:15:08.844Z,84.58
2023-02-12T07:16:04.159Z,84.61
2023-02-12T07:16:59.399Z,84.64
2023-02-12T07:17:54.771Z,84.61
2023-02-12T07:18:49.991Z,84.60
2023-02-12T07:19:45.230Z,84.56
2023-02-12T07:20:40.610Z,84.42
2023-02-12T07:21:35.720Z,84.46
2023-02-12T07:22:31.122Z,84.50
2023-02-12T07:23:26.223Z,84.58
2023-02-12T07:24:21.596Z,84.79
2023-02-12T07:25:16.690Z,84.68
2023-02-12T07:26:11.975Z,84.75
2023-02-12T07:27:07.209Z,84.86
2023-02-12T07:28:02.762Z,85.07
2023-02-12T07:28:57.885Z,85.47
2023-02-12T07:29:53.155Z,85.88
2023-02-12T07:30:48.486Z,86.31
2023-02-12T07:31:43.862Z,86.64
2023-02-12T07:32:39.172Z,86.96
2023-02-12T07:33:34.522Z,87.32
2023-02-12T07:34:29.925Z,87.72
2023-02-12T07:35:25.240Z,88.02
2023-02-12T07:36:20.576Z,88.35
2023-02-12T07:37:15.912Z,88.58
2023-02-12T07:38:11.478Z,88.66
2023-02-12T07:39:06.579Z,88.72
2023-02-12T07:40:01.892Z,88.79
2023-02-12T07:40:57.239Z,88.77
2023-02-12T07:41:52.533Z,88.79
2023-02-12T07:42:47.839Z,88.85
2023-02-12T07:43:43.381Z,88.91
2023-02-12T07:44:38.568Z,89.06
2023-02-12T07:45:33.922Z,89.13
2023-02-12T07:46:29.263Z,89.12
2023-02-12T07:47:24.563Z,89.17
2023-02-12T07:48:20.036Z,89.13
2023-02-12T07:49:15.229Z,89.12
2023-02-12T07:50:10.553Z,89.01
2023-02-12T07:51:05.872Z,88.84
2023-02-12T07:52:01.196Z,88.62
2023-02-12T07:52:56.495Z,88.46
2023-02-12T07:53:51.940Z,88.49
2023-02-12T07:54:47.105Z,88.51
2023-02-12T07:55:42.439Z,88.64
2023-02-12T07:56:37.837Z,88.77
2023-02-12T07:57:33.133Z,88.92
2023-02-12T07:58:28.582Z,89.07
2023-02-12T07:59:23.904Z,89.18
2023-02-12T08:00:19.090Z,89.17
2023-02-12T08:01:14.425Z,89.14
2023-02-12T08:02:09.804Z,89.17
2023-02-12T08:03:05.124Z,89.17
2023-02-12T08:04:00.672Z,89.23
2023-02-12T08:04:57.037Z,89.34
2023-02-12T08:05:51.137Z,89.50
2023-02-12T08:06:46.471Z,89.69
2023-02-12T08:07:41.781Z,89.83
2023-02-12T08:08:37.228Z,89.94
2023-02-12T08:09:32.457Z,90.14
2023-02-12T08:10:29.527Z,90.25
2023-02-12T08:11:23.052Z,90.46
2023-02-12T08:12:18.366Z,90.61
2023-02-12T08:13:13.676Z,90.70
2023-02-12T08:14:09.010Z,90.83
2023-02-12T08:15:05.263Z,90.96
2023-02-12T08:15:59.656Z,91.16
2023-02-12T08:16:55.047Z,91.26
2023-02-12T08:17:50.322Z,91.31
2023-02-12T08:18:45.773Z,91.28
2023-02-12T08:19:41.014Z,91.26
2023-02-12T08:20:36.427Z,91.22
2023-02-12T08:21:31.644Z,91.21
2023-02-12T08:22:26.930Z,91.18
2023-02-12T08:23:22.253Z,91.09
2023-02-12T08:24:17.588Z,91.01
2023-02-12T08:25:13.033Z,90.91
2023-02-12T08:26:08.253Z,90.82
2023-02-12T08:27:03.596Z,90.75
2023-02-12T08:27:58.952Z,90.66
2023-02-12T08:28:54.401Z,90.65
2023-02-12T08:29:49.709Z,90.62
2023-02-12T08:30:45.061Z,90.55
2023-02-12T08:31:40.436Z,90.48
2023-02-12T08:32:35.898Z,90.44
2023-02-12T08:33:31.069Z,90.44
2023-02-12T08:34:26.428Z,90.44
2023-02-12T08:35:21.843Z,90.49
2023-02-12T08:36:17.310Z,90.53
2023-02-12T08:37:12.499Z,90.55
2023-02-12T08:38:07.838Z,90.58
2023-02-12T08:39:03.283Z,90.67
2023-02-12T08:39:58.656Z,90.73
2023-02-12T08:40:53.866Z,90.80
2023-02-12T08:41:49.197Z,90.84
2023-02-12T08:42:44.538Z,90.88
2023-02-12T08:43:39.854Z,90.81
2023-02-12T08:44:35.306Z,90.80
2023-02-12T08:45:30.502Z,90.78
2023-02-12T08:46:25.892Z,90.67
2023-02-12T08:47:21.114Z,90.56
2023-02-12T08:48:16.418Z,90.48
2023-02-12T08:49:11.893Z,90.44
2023-02-12T08:50:07.100Z,90.26
2023-02-12T08:51:02.413Z,90.19
2023-02-12T08:51:57.761Z,90.02
2023-02-12T08:52:53.074Z,89.95
2023-02-12T08:53:48.406Z,89.89
2023-02-12T08:54:43.745Z,89.92
2023-02-12T08:55:39.187Z,90.02
2023-02-12T08:56:34.358Z,90.05
2023-02-12T08:57:29.689Z,90.02
2023-02-12T08:58:25.014Z,89.97
2023-02-12T08:59:20.454Z,89.89
2023-02-12T09:00:15.698Z,89.83
2023-02-12T09:01:11.077Z,89.71
2023-02-12T09:02:06.562Z,89.50
2023-02-12T09:03:01.759Z,89.33
2023-02-12T09:03:57.255Z,89.07
2023-02-12T09:04:52.453Z,88.84
2023-02-12T09:05:47.794Z,88.52
2023-02-12T09:06:43.085Z,88.21
2023-02-12T09:07:38.446Z,88.03
2023-02-12T09:08:33.743Z,87.86
2023-02-12T09:09:29.334Z,87.71
2023-02-12T09:10:24.406Z,87.57
2023-02-12T09:11:19.743Z,87.37
2023-02-12T09:12:15.086Z,87.24
2023-02-12T09:13:10.395Z,87.25
2023-02-12T09:14:05.701Z,87.43
2023-02-12T09:15:01.114Z,87.98
2023-02-12T09:15:56.535Z,88.06
2023-02-12T09:16:51.578Z,87.51
2023-02-12T09:17:46.867Z,87.34
2023-02-12T09:18:42.144Z,87.37
2023-02-12T09:19:37.631Z,87.28
2023-02-12T09:20:32.806Z,87.08
2023-02-12T09:21:28.049Z,86.84
2023-02-12T09:22:23.345Z,86.95
2023-02-12T09:23:18.582Z,86.89
2023-02-12T09:24:13.975Z,87.10
2023-02-12T09:25:09.549Z,87.05
2023-02-12T09:26:04.533Z,86.72
2023-02-12T09:27:00.530Z,86.73
2023-02-12T09:27:55.122Z,86.90
2023-02-12T09:28:50.354Z,86.54
2023-02-12T09:29:45.842Z,86.41
2023-02-12T09:30:41.065Z,86.22
2023-02-12T09:31:36.302Z,85.69
2023-02-12T09:32:31.664Z,85.46
2023-02-12T09:33:27.008Z,85.31
2023-02-12T09:34:22.313Z,84.64
2023-02-12T09:35:17.656Z,84.39
2023-02-12T09:36:12.949Z,84.17
2023-02-12T09:37:08.417Z,84.07
2023-02-12T09:38:03.606Z,84.06
2023-02-12T09:38:58.918Z,84.02
2023-02-12T09:39:54.325Z,83.87
2023-02-12T09:40:49.535Z,83.62
2023-02-12T09:41:44.845Z,83.53
2023-02-12T09:42:40.390Z,83.43
2023-02-12T09:43:35.550Z,83.34
2023-02-12T09:44:30.887Z,83.38
2023-02-12T09:45:26.228Z,83.33
2023-02-12T09:46:21.590Z,83.41
2023-02-12T09:47:16.932Z,83.26
2023-02-12T09:48:12.238Z,83.16
2023-02-12T09:49:07.534Z,83.14
2023-02-12T09:50:03.029Z,82.93
2023-02-12T09:50:58.217Z,82.75
2023-02-12T09:51:53.513Z,82.64
2023-02-12T09:52:48.928Z,82.85
2023-02-12T09:53:44.122Z,82.80
2023-02-12T09:54:39.440Z,82.83
2023-02-12T09:55:34.814Z,82.89
2023-02-12T09:56:30.180Z,82.88
2023-02-12T09:57:25.546Z,83.44
2023-02-12T09:58:21.054Z,83.95
2023-02-12T09:59:16.622Z,84.44
2023-02-12T10:00:11.970Z,84.64
2023-02-12T10:01:07.290Z,84.70
2023-02-12T10:02:02.713Z,84.46
2023-02-12T10:02:58.100Z,84.23
2023-02-12T10:03:53.520Z,84.12
2023-02-12T10:05:00.604Z,84.00
2023-02-12T10:05:45.399Z,83.97
2023-02-12T10:06:39.949Z,83.99
2023-02-12T10:07:35.170Z,83.85
2023-02-12T10:08:30.598Z,83.66
2023-02-12T10:09:25.949Z,83.53
2023-02-12T10:10:21.453Z,83.50
2023-02-12T10:11:16.714Z,83.44
2023-02-12T10:12:12.111Z,83.47
2023-02-12T10:13:07.504Z,83.30
2023-02-12T10:14:02.882Z,83.35
2023-02-12T10:14:58.251Z,83.25
2023-02-12T10:15:53.836Z,83.26
2023-02-12T10:16:48.936Z,83.36
2023-02-12T10:17:44.261Z,83.55
2023-02-12T10:18:39.611Z,83.53
2023-02-12T10:19:34.957Z,83.48
2023-02-12T10:20:30.574Z,83.32
2023-02-12T10:21:25.677Z,83.43
2023-02-12T10:22:20.994Z,83.47
2023-02-12T10:23:16.337Z,83.69
2023-02-12T10:24:11.644Z,83.86
2023-02-12T10:25:07.073Z,83.86
2023-02-12T10:26:02.950Z,83.60
2023-02-12T10:26:57.596Z,83.48
2023-02-12T10:27:52.918Z,83.56
2023-02-12T10:28:48.231Z,83.68
2023-02-12T10:29:43.544Z,83.43
2023-02-12T10:30:38.943Z,83.35
2023-02-12T10:31:34.606Z,83.97
2023-02-12T10:32:29.347Z,84.44
2023-02-12T10:33:24.707Z,84.56
2023-02-12T10:34:19.985Z,84.72
2023-02-12T10:35:15.231Z,84.93
2023-02-12T10:36:11.196Z,84.89
2023-02-12T10:37:05.825Z,84.64
2023-02-12T10:38:01.157Z,84.38
2023-02-12T10:38:56.408Z,84.50
2023-02-12T10:39:51.703Z,84.54
2023-02-12T10:40:47.098Z,84.66
2023-02-12T10:41:42.265Z,84.70
2023-02-12T10:42:37.514Z,84.58
2023-02-12T10:43:32.955Z,84.51
2023-02-12T10:44:28.039Z,84.41
2023-02-12T10:45:23.341Z,84.34
2023-02-12T10:46:18.644Z,84.30
2023-02-12T10:47:13.915Z,84.10
2023-02-12T10:48:09.189Z,84.11
2023-02-12T10:49:04.490Z,84.19
2023-02-12T10:49:59.807Z,84.22
2023-02-12T10:50:55.204Z,84.19
2023-02-12T10:51:50.416Z,84.22
2023-02-12T10:52:45.716Z,84.13
2023-02-12T10:53:41.076Z,84.02
2023-02-12T10:54:36.636Z,84.11
2023-02-12T10:55:31.811Z,84.16
2023-02-12T10:56:27.117Z,84.42
2023-02-12T10:57:22.455Z,84.46
2023-02-12T10:58:17.768Z,84.66
2023-02-12T10:59:13.127Z,84.66
2023-02-12T11:00:08.411Z,84.39
2023-02-12T11:01:03.848Z,84.20
2023-02-12T11:01:59.043Z,83.97
2023-02-12T11:02:54.719Z,84.08
2023-02-12T11:03:49.587Z,84.18
2023-02-12T11:04:44.925Z,84.59
2023-02-12T11:05:40.206Z,84.99
2023-02-12T11:06:35.617Z,85.06
2023-02-12T11:07:30.737Z,84.78
2023-02-12T11:08:26.036Z,84.96
2023-02-12T11:09:21.310Z,85.12
2023-02-12T11:10:16.558Z,85.14
2023-02-12T11:11:11.951Z,85.13
2023-02-12T11:12:07.068Z,85.09
2023-02-12T11:13:02.417Z,84.91
2023-02-12T11:13:57.568Z,84.79
2023-02-12T11:14:52.833Z,85.02
2023-02-12T11:15:48.170Z,85.13
2023-02-12T11:16:43.457Z,85.09
2023-02-12T11:17:38.710Z,85.12
2023-02-12T11:18:33.953Z,85.34
2023-02-12T11:19:29.249Z,85.41
2023-02-12T11:20:24.486Z,85.41
2023-02-12T11:21:19.876Z,85.47
2023-02-12T11:22:15.023Z,85.49
2023-02-12T11:23:10.298Z,85.63
2023-02-12T11:24:05.743Z,85.73
2023-02-12T11:25:00.849Z,85.88
2023-02-12T11:25:56.390Z,85.92
2023-02-12T11:26:51.406Z,85.78
2023-02-12T11:27:46.662Z,85.49
2023-02-12T11:28:42.104Z,85.23
2023-02-12T11:29:37.283Z,85.10
2023-02-12T11:30:32.582Z,84.88
2023-02-12T11:31:28.107Z,84.76
2023-02-12T11:32:23.181Z,84.64
2023-02-12T11:33:19.083Z,84.80
2023-02-12T11:34:13.721Z,85.01
2023-02-12T11:35:08.970Z,85.08
2023-02-12T11:37:29.043Z,86.00
2023-02-12T11:38:24.650Z,85.73
2023-02-12T11:39:19.755Z,85.59
2023-02-12T11:40:15.152Z,85.44
2023-02-12T11:41:11.353Z,85.50
2023-02-12T11:42:05.920Z,85.74
2023-02-12T11:43:01.276Z,85.77
2023-02-12T11:43:56.829Z,85.71
2023-02-12T11:44:52.125Z,85.79
2023-02-12T11:45:47.601Z,85.84
2023-02-12T11:46:43.089Z,86.17
2023-02-12T11:47:38.465Z,86.35
2023-02-12T11:48:33.911Z,86.54
2023-02-12T11:49:29.378Z,86.54
2023-02-12T11:50:24.942Z,86.37
2023-02-12T11:51:20.363Z,86.15
2023-02-12T11:52:15.704Z,85.95
2023-02-12T11:53:11.378Z,85.97
2023-02-12T11:54:06.533Z,85.97
2023-02-12T11:55:01.939Z,85.90
2023-02-12T11:55:57.327Z,85.89